Milborne Port, United Kingdom
Current Conditions -  °F | °C
As of 11:50 AM on Sunday 23 Nov 2014 (Local Time) from EGDY Reporting Station
Broken Clouds Broken Clouds  
Wind Chill:   Ceiling: 4200
Heat Index:   Visibility: 6mi
Dew Point:   Wind: 7mph
Humidity: 82%   Direction: 330°NNW
Pressure: 30.06"   Gusts: NA
Location:  50.97°N, 2.46°W
Report Text: EGDY 231150Z AUTO 33006KT 9999 BKN042/// BKN050/// 09/06 Q1018
Loading
Personal Weather Stations






























Interactive Weather Map New forecast layout! Learn more

10-Day Weather Forecast

Advertisements
Track Severe Weather on mobile